Latest Weather Observations for Moss Vale

IDN60801

Issued at 2:32 pm EST Tuesday 7 July 2015 (issued every 30 minutes, with the page automatically refreshed every 10 minutes)

About weather observations | Map of weather stations | Latest weather observations for NSW | Other Formats
Station Details ID: 068239 Name: MOSS VALE AWS Lat: -34.53 Lon: 150.42 Height: 678.4 m
Data from the previous 72 hours. | See also: Recent months at Moss Vale
Date/Time
EST
Temp
°C
App
Temp
°C
Dew
Point
Rel
Hum
%
Delta-T
°C
Wind Press
QNH
hPa
Press
MSL
hPa
Rain
since 9 am
mm
Dir
 
Spd
km/h
Gust
km/h
Spd
kts
Gust
kts
07/02:30pm 7.4 2.9 6.0 91 0.7 S 19 24 10 13 1021.2 1022.0 0.0
07/02:00pm 7.2 3.0 5.7 90 0.7 S 17 20 9 11 1020.8 1021.6 0.0
07/01:43pm 7.6 3.5 6.1 90 0.7 S 17 22 9 12 1020.8 1021.6 0.0
07/01:30pm 7.5 3.5 6.6 94 0.4 SSW 17 22 9 12 1020.7 1021.5 0.0
07/01:07pm 7.7 3.5 5.5 86 1.0 SSW 17 22 9 12 1020.7 1021.5 0.0
07/01:00pm 7.8 2.9 4.9 82 1.3 SSW 20 26 11 14 1020.7 1021.5 0.0
07/12:30pm 7.6 2.8 4.6 81 1.4 SSW 19 28 10 15 1020.6 1021.4 0.0
07/12:00pm 7.3 2.3 4.8 84 1.1 SSW 20 26 11 14 1020.7 1021.5 0.0
07/11:30am 8.0 3.0 4.8 80 1.5 SSW 20 28 11 15 1020.7 1021.5 0.0
07/11:09am 7.4 2.3 4.2 80 1.4 SW 20 26 11 14 1020.9 1021.7 0.0
07/11:00am 7.4 2.7 5.0 85 1.1 SW 19 24 10 13 1020.8 1021.6 0.0
07/10:50am 6.9 1.4 4.0 82 1.3 SSW 22 28 12 15 1020.9 1021.7 0.0
07/10:31am 7.1 1.5 3.7 79 1.5 SSW 22 30 12 16 1020.9 1021.7 0.0
07/10:30am 6.9 1.3 3.2 77 1.6 SSW 22 30 12 16 1020.9 1021.7 0.0
07/10:00am 7.0 1.6 2.5 73 1.9 SSW 20 28 11 15 1020.8 1021.6 0.0
07/09:30am 6.8 1.9 1.7 70 2.2 SSW 17 24 9 13 1020.4 1021.2 0.0
07/09:00am 5.7 2.0 2.4 79 1.4 SW 11 15 6 8 1020.1 1020.9 0.0
07/08:30am 4.5 0.3 1.4 80 1.3 WSW 13 17 7 9 1019.8 1020.5 0.0
07/08:00am 3.7 -0.6 1.3 84 1.0 SW 13 17 7 9 1019.3 1020.1 0.0
07/07:30am 3.5 -1.2 0.7 82 1.1 SW 15 20 8 11 1018.9 1019.7 0.0
07/07:00am 4.0 -0.3 0.7 79 1.3 WSW 13 19 7 10 1018.5 1019.2 0.0
07/06:30am 3.9 -1.2 0.9 81 1.2 W 17 22 9 12 1018.0 1018.7 0.0
07/06:00am 4.3 -0.8 1.0 79 1.3 WSW 17 30 9 16 1017.4 1018.2 0.0
07/05:30am 3.9 -1.8 0.8 80 1.2 WSW 20 28 11 15 1017.1 1017.8 0.0
07/05:00am 4.0 -2.8 0.9 80 1.2 WSW 26 37 14 20 1016.9 1017.6 0.0
07/04:30am 3.4 -2.1 0.8 83 1.0 WSW 19 26 10 14 1016.7 1017.4 0.0
07/04:00am 3.0 -1.3 0.9 86 0.8 W 13 17 7 9 1016.8 1017.5 0.0
07/03:30am 2.9 -0.6 1.0 87 0.8 W 9 15 5 8 1016.7 1017.4 0.0
07/03:00am 2.5 -0.8 0.4 86 0.8 WSW 7 11 4 6 1016.8 1017.5 0.0
07/02:30am 2.5 -1.9 0.2 85 0.9 WSW 13 19 7 10 1016.6 1017.3 0.0
07/02:00am 2.8 -2.9 0.4 84 0.9 W 20 24 11 13 1016.3 1017.0 0.0
07/01:30am 3.0 -2.8 0.2 82 1.1 W 20 26 11 14 1016.3 1017.0 0.0
07/01:00am 3.2 -2.5 0.3 81 1.1 W 20 30 11 16 1016.1 1016.9 0.0
07/12:30am 3.2 -2.5 0.3 81 1.1 W 20 28 11 15 1016.1 1016.9 0.0
07/12:00am 3.3 -2.8 0.7 83 1.0 W 22 32 12 17 1016.3 1017.0 0.0
 
Date/Time
EST
Temp
°C
App
Temp
°C
Dew
Point
Rel
Hum
%
Delta-T
°C
Wind Press
QNH
hPa
Press
MSL
hPa
Rain
since 9 am
mm
Dir
 
Spd
km/h
Gust
km/h
Spd
kts
Gust
kts
06/11:30pm 2.5 -2.3 0.1 84 0.9 W 15 22 8 12 1016.6 1017.3 0.0
06/11:00pm 2.7 -1.7 0.1 83 1.0 W 13 20 7 11 1016.7 1017.4 0.0
06/10:30pm 2.8 -1.3 0.0 82 1.1 WSW 11 15 6 8 1016.9 1017.6 0.0
06/10:00pm 3.0 -2.6 0.2 82 1.1 WSW 19 22 10 12 1016.6 1017.3 0.0
06/09:30pm 3.2 -2.3 0.3 81 1.1 WSW 19 26 10 14 1016.3 1017.0 0.0
06/09:00pm 3.5 -2.3 0.2 79 1.3 W 20 26 11 14 1016.0 1016.7 0.0
06/08:30pm 3.6 -2.2 -0.4 75 1.6 W 20 26 11 14 1016.0 1016.7 0.0
06/08:00pm 3.7 -2.0 -0.5 74 1.6 W 19 24 10 13 1015.9 1016.6 0.0
06/07:30pm 4.0 -1.7 -0.4 73 1.7 WSW 19 24 10 13 1015.9 1016.6 0.0
06/07:00pm 4.1 -2.2 -0.7 71 1.9 WSW 22 28 12 15 1015.8 1016.5 0.0
06/06:30pm 4.2 -1.7 -0.8 70 1.9 WSW 20 24 11 13 1015.6 1016.3 0.0
06/06:00pm 4.6 -1.3 -0.6 69 2.0 WSW 20 28 11 15 1015.3 1016.0 0.0
06/05:30pm 5.3 -1.3 -0.7 65 2.4 WSW 24 32 13 17 1014.9 1015.6 0.0
06/05:00pm 5.7 -0.2 -0.8 63 2.6 WSW 20 28 11 15 1014.5 1015.2 0.0
06/04:30pm 6.9 -0.1 -0.8 58 3.1 WSW 26 37 14 20 1014.4 1015.1 0.0
06/04:00pm 7.6 0.6 -0.8 55 3.4 WSW 26 39 14 21 1014.2 1014.9 0.0
06/03:30pm 8.1 0.2 -1.4 51 3.8 W 30 41 16 22 1013.9 1014.6 0.0
06/03:00pm 8.9 1.9 -0.7 51 3.9 W 26 39 14 21 1013.8 1014.5 0.0
06/02:30pm 8.8 1.0 -1.0 50 4.0 WSW 30 39 16 21 1013.5 1014.1 0.0
06/02:01pm 8.9 1.5 -0.9 50 4.0 WSW 28 46 15 25 1013.4 1014.0 0.0
06/02:00pm 9.0 1.5 -1.4 48 4.2 WSW 28 35 15 19 1013.5 1014.1 0.0
06/01:30pm 9.2 1.8 -0.7 50 4.1 WSW 28 43 15 23 1013.3 1013.9 0.0
06/01:00pm 8.8 0.4 -1.3 49 4.1 WSW 33 44 18 24 1013.5 1014.1 0.0
06/12:30pm 8.5 0.3 -1.3 50 3.9 WSW 32 41 17 22 1013.7 1014.4 0.0
06/12:00pm 8.5 1.7 1.0 59 3.2 WSW 26 37 14 20 1014.2 1014.9 0.0
06/11:30am 7.8 0.5 -0.2 57 3.3 WSW 28 37 15 20 1014.5 1015.2 0.0
06/11:05am 6.9 -0.6 -1.3 56 3.2 WSW 28 46 15 25 1014.6 1015.3 0.0
06/11:00am 7.6 0.4 0.6 61 2.9 WSW 28 41 15 22 1014.9 1015.6 0.0
06/10:30am 6.3 -1.7 0.2 65 2.5 W 32 43 17 23 1015.2 1015.9 0.0
06/10:00am 5.4 -1.5 0.2 69 2.1 WSW 26 41 14 22 1015.6 1016.3 0.0
06/09:30am 4.6 -3.1 0.0 72 1.8 W 30 39 16 21 1015.6 1016.3 0.0
06/09:00am 4.1 -2.0 0.6 78 1.4 WSW 22 33 12 18 1015.8 1016.5 0.2
06/08:30am 3.3 -2.4 0.4 81 1.1 WSW 20 30 11 16 1015.6 1016.3 0.2
06/08:00am 2.6 -3.9 0.2 84 0.9 W 24 37 13 20 1015.4 1016.1 0.2
06/07:30am 1.8 -4.3 0.2 89 0.6 W 22 28 12 15 1015.5 1016.2 0.2
06/07:00am 1.8 -4.7 0.5 91 0.5 W 24 32 13 17 1015.5 1016.2 0.2
06/06:30am 2.0 -4.5 0.5 90 0.6 W 24 30 13 16 1015.5 1016.2 0.2
06/06:00am 2.4 -4.0 0.8 89 0.6 W 24 35 13 19 1015.4 1016.1 0.2
06/05:30am 2.3 -4.9 0.8 90 0.6 W 28 39 15 21 1015.5 1016.2 0.2
06/05:00am 2.1 -3.9 0.9 92 0.5 W 22 32 12 17 1015.5 1016.2 0.2
06/04:30am 2.2 -4.2 1.2 93 0.4 W 24 35 13 19 1015.5 1016.2 0.0
06/04:00am 1.9 -3.2 1.0 94 0.4 W 17 26 9 14 1015.8 1016.5 0.0
06/03:30am 1.6 -2.7 0.7 94 0.4 W 13 17 7 9 1016.0 1016.7 0.0
06/03:00am 1.7 -2.3 0.7 93 0.4 W 11 17 6 9 1016.5 1017.2 0.0
06/02:30am 2.1 -2.2 1.1 93 0.4 W 13 17 7 9 1016.8 1017.5 0.0
06/02:00am 2.1 -2.6 0.9 92 0.5 W 15 19 8 10 1017.1 1017.8 0.0
06/01:30am 2.3 -1.6 1.0 91 0.5 W 11 15 6 8 1017.2 1017.9 0.0
06/01:00am 2.5 -1.4 1.2 91 0.5 W 11 15 6 8 1017.5 1018.3 0.0
06/12:30am 2.8 -0.3 1.3 90 0.6 W 7 9 4 5 1017.7 1018.5 0.0
06/12:00am 2.9 -0.9 1.7 92 0.5 W 11 15 6 8 1018.0 1018.7 0.0
 
Date/Time
EST
Temp
°C
App
Temp
°C
Dew
Point
Rel
Hum
%
Delta-T
°C
Wind Press
QNH
hPa
Press
MSL
hPa
Rain
since 9 am
mm
Dir
 
Spd
km/h
Gust
km/h
Spd
kts
Gust
kts
05/11:30pm 2.9 -0.6 1.3 89 0.6 W 9 11 5 6 1018.1 1018.8 0.0
05/11:00pm 3.4 0.4 0.6 82 1.1 W 6 9 3 5 1018.2 1018.9 0.0
05/10:30pm 4.2 1.0 0.7 78 1.4 SW 7 9 4 5 1018.2 1018.9 0.0
05/10:00pm 4.8 1.2 0.9 76 1.6 WSW 9 11 5 6 1018.2 1018.9 0.0
05/09:30pm 5.2 1.3 1.0 74 1.7 W 11 13 6 7 1018.4 1019.1 0.0
05/09:00pm 5.3 1.4 1.2 75 1.7 WSW 11 13 6 7 1018.5 1019.2 0.0
05/08:30pm 5.5 1.6 1.2 74 1.8 WSW 11 13 6 7 1018.6 1019.4 0.0
05/08:00pm 6.1 2.7 1.6 73 1.9 WSW 9 9 5 5 1018.5 1019.2 0.0
05/07:30pm 6.7 3.3 1.6 70 2.1 W 9 11 5 6 1018.6 1019.4 0.0
05/07:00pm 7.5 4.5 2.2 69 2.3 W 7 9 4 5 1018.6 1019.4 0.0
05/06:30pm 7.8 6.2 2.3 68 2.4 CALM 0 0 0 0 1018.5 1019.2 0.0
05/06:00pm 8.0 5.6 2.3 67 2.5 WNW 4 9 2 5 1018.3 1019.0 0.0
05/05:30pm 9.6 5.5 2.2 60 3.3 W 13 15 7 8 1018.0 1018.7 0.0
05/05:00pm 10.5 7.2 2.6 58 3.5 WNW 9 13 5 7 1017.9 1018.6 0.0
05/04:30pm 11.2 7.6 2.8 56 3.8 W 11 15 6 8 1017.9 1018.6 0.0
05/04:00pm 12.8 9.2 3.2 52 4.4 W 11 15 6 8 1017.9 1018.6 0.0
05/03:30pm 13.0 8.8 1.7 46 5.1 WNW 13 19 7 10 1017.9 1018.6 0.0
05/03:00pm 13.7 9.6 2.0 45 5.3 W 13 19 7 10 1017.9 1018.6 0.0
05/02:30pm 13.2 8.4 2.7 49 4.8 W 17 20 9 11 1018.0 1018.7 0.0
05/02:00pm 13.0 8.5 2.3 48 4.8 W 15 24 8 13 1018.2 1018.9 0.0
05/01:30pm 12.5 8.7 1.5 47 4.9 WSW 11 17 6 9 1018.2 1018.9 0.0
05/01:00pm 12.4 8.0 2.6 51 4.4 WSW 15 20 8 11 1018.5 1019.2 0.0
05/12:30pm 12.3 7.6 -2.0 37 5.9 NW 13 19 7 10 1019.0 1019.8 0.0
05/12:00pm 12.0 7.5 -0.5 42 5.3 WNW 13 17 7 9 1019.5 1020.2 0.0
05/11:30am 10.9 6.5 0.6 49 4.4 W 13 17 7 9 1020.1 1020.9 0.0
05/11:00am 9.6 5.8 1.8 58 3.4 WNW 11 15 6 8 1020.6 1021.4 0.0
05/10:30am 7.9 3.5 0.4 59 3.1 WNW 13 17 7 9 1021.1 1021.8 0.0
05/10:00am 6.6 2.7 0.9 67 2.4 WNW 11 15 6 8 1021.4 1022.2 0.0
05/09:30am 4.9 1.6 0.3 72 1.8 W 7 9 4 5 1021.5 1022.3 0.0
05/09:00am 2.9 -0.4 -0.2 80 1.2 WNW 7 11 4 6 1021.4 1022.2 0.0
05/08:30am 1.2 -0.8 -0.1 91 0.5 CALM 0 0 0 0 1021.5 1022.3 0.0
05/08:00am -0.5 -2.7 -1.2 95 0.2 CALM 0 0 0 0 1021.5 1022.3 0.0
05/07:43am -0.8 -3.0 -1.4 96 0.2 CALM 0 0 0 0 1021.4 1022.2 0.0
05/07:30am -1.3 -3.6 -2.0 95 0.2 CALM 0 0 0 0 1021.4 1022.2 0.0
05/07:27am -1.7 -4.0 -2.4 95 0.2 CALM 0 2 0 1 1021.5 1022.3 0.0
05/07:24am -1.7 -4.0 -2.4 95 0.2 CALM 0 7 0 4 1021.4 1022.2 0.0
05/07:00am -1.8 -4.1 -2.5 95 0.2 CALM 0 0 0 0 1021.2 1022.0 0.0
05/06:30am -1.8 -4.9 -2.6 94 0.2 N 4 6 2 3 1020.7 1021.5 0.0
05/06:26am -1.7 -4.8 -2.4 95 0.2 N 4 6 2 3 1020.7 1021.5 0.0
05/06:00am -1.3 -4.7 -2.0 95 0.2 NNW 6 7 3 4 1020.4 1021.2 0.0
05/05:30am -1.1 -4.5 -1.9 94 0.2 NNW 6 9 3 5 1020.4 1021.2 0.0
05/05:00am -1.2 -3.5 -2.2 93 0.3 CALM 0 0 0 0 1020.5 1021.3 0.0
05/04:30am -0.5 -2.7 -1.6 92 0.4 CALM 0 0 0 0 1020.4 1021.2 0.0
05/04:00am -0.1 -3.6 -1.2 92 0.4 W 7 9 4 5 1020.6 1021.4 0.0
05/03:30am 0.1 -3.1 -0.7 94 0.3 WNW 6 9 3 5 1020.8 1021.6 0.0
05/03:00am 0.0 -3.5 -1.1 92 0.4 WNW 7 9 4 5 1020.9 1021.7 0.0
05/02:30am 0.2 -3.6 -1.1 91 0.5 W 9 13 5 7 1021.2 1022.0 0.0
05/02:00am 0.2 -3.3 -1.2 90 0.5 WNW 7 9 4 5 1021.3 1022.1 0.0
05/01:30am 0.4 -3.4 -1.0 90 0.5 W 9 13 5 7 1021.4 1022.2 0.0
05/01:00am 0.7 -2.7 -0.6 91 0.5 W 7 9 4 5 1021.2 1022.0 0.0
05/12:30am 0.4 -2.5 -1.2 89 0.6 WNW 4 7 2 4 1021.3 1022.1 0.0
05/12:00am 1.0 -2.4 -0.5 90 0.6 W 7 9 4 5 1021.4 1022.2 0.0
 
Date/Time
EST
Temp
°C
App
Temp
°C
Dew
Point
Rel
Hum
%
Delta-T
°C
Wind Press
QNH
hPa
Press
MSL
hPa
Rain
since 9 am
mm
Dir
 
Spd
km/h
Gust
km/h
Spd
kts
Gust
kts
04/11:30pm 1.4 -2.4 -0.4 88 0.7 WNW 9 17 5 9 1021.6 1022.4 0.0
04/11:00pm 1.4 -3.5 -0.2 89 0.6 WSW 15 17 8 9 1021.6 1022.4 0.0
04/10:30pm 1.8 -3.0 -0.1 87 0.7 WSW 15 17 8 9 1021.7 1022.5 0.0
04/10:00pm 2.3 -1.4 -0.1 84 0.9 WNW 9 13 5 7 1021.8 1022.6 0.0
04/09:30pm 2.7 -1.4 0.1 83 1.0 W 11 19 6 10 1021.9 1022.7 0.0
04/09:00pm 2.7 -2.5 -0.1 82 1.1 WSW 17 20 9 11 1021.8 1022.6 0.0
04/08:30pm 3.0 -2.6 -0.1 80 1.2 WSW 19 24 10 13 1021.7 1022.5 0.0
04/08:00pm 3.8 -2.0 0.1 77 1.5 WSW 20 24 11 13 1021.7 1022.5 0.0
04/07:30pm 3.9 -1.9 0.1 76 1.5 WSW 20 30 11 16 1021.8 1022.6 0.0
04/07:00pm 3.9 -1.4 -0.3 74 1.6 WSW 17 22 9 12 1021.6 1022.4 0.0
04/06:30pm 4.1 -0.7 -0.1 74 1.7 WSW 15 19 8 10 1021.4 1022.2 0.0
04/06:00pm 4.8 0.0 0.0 71 1.9 WSW 15 20 8 11 1020.9 1021.7 0.0
04/05:30pm 5.2 0.0 -0.2 68 2.1 SW 17 22 9 12 1020.7 1021.5 0.0
04/05:00pm 6.0 0.8 -0.1 65 2.4 SW 17 22 9 12 1020.6 1021.4 0.0
04/04:30pm 7.0 2.2 0.0 61 2.8 WSW 15 20 8 11 1020.5 1021.3 0.0
04/04:00pm 7.6 1.0 -0.1 58 3.1 WSW 24 33 13 18 1020.3 1021.1 0.0
04/03:30pm 8.2 2.0 -0.3 55 3.5 WSW 22 33 12 18 1020.1 1020.9 0.0
04/03:00pm 8.9 2.4 0.4 55 3.5 WSW 24 33 13 18 1019.8 1020.5 0.0

Other Formats:

Comma delimited format used in spreadsheet applications
http://www.bom.gov.au/fwo/IDN60801/IDN60801.94746.axf

JavaScript Object Notation format (JSON) in row-major order
http://www.bom.gov.au/fwo/IDN60801/IDN60801.94746.json